createdAt,value
2018-03-30T00:00:58.270Z,88.70
2018-03-30T00:01:58.248Z,94.20
2018-03-30T00:02:58.370Z,88.90
2018-03-30T00:03:58.295Z,88.80
2018-03-30T00:04:58.307Z,93.30
2018-03-30T00:05:58.260Z,88.00
2018-03-30T00:06:58.199Z,94.50
2018-03-30T00:07:58.179Z,84.40
2018-03-30T00:08:58.173Z,75.50
2018-03-30T00:09:58.233Z,63.30
2018-03-30T00:10:58.233Z,64.80
2018-03-30T00:11:58.201Z,57.80
2018-03-30T00:12:58.159Z,55.40
2018-03-30T00:13:58.116Z,57.70
2018-03-30T00:14:58.111Z,57.10
2018-03-30T00:15:58.094Z,66.40
2018-03-30T00:16:58.081Z,71.00
2018-03-30T00:17:58.162Z,78.30
2018-03-30T00:18:58.086Z,83.20
2018-03-30T00:19:58.057Z,76.00
2018-03-30T00:20:58.102Z,83.90
2018-03-30T00:21:58.109Z,78.50
2018-03-30T00:22:58.049Z,67.10
2018-03-30T00:23:57.995Z,67.00
2018-03-30T00:24:58.004Z,65.40
2018-03-30T00:25:58.022Z,65.50
2018-03-30T00:26:57.973Z,73.20
2018-03-30T00:27:57.968Z,73.30
2018-03-30T00:28:57.949Z,74.60
2018-03-30T00:29:57.941Z,71.90
2018-03-30T00:30:57.932Z,68.90
2018-03-30T00:31:57.927Z,65.60
2018-03-30T00:32:57.970Z,67.40
2018-03-30T00:33:57.971Z,65.20
2018-03-30T00:34:57.912Z,59.60
2018-03-30T00:35:57.868Z,70.30
2018-03-30T00:36:57.853Z,56.50
2018-03-30T00:37:57.866Z,70.60
2018-03-30T00:38:57.855Z,77.00
2018-03-30T00:39:57.917Z,65.50
2018-03-30T00:40:57.811Z,56.70
2018-03-30T00:41:57.802Z,65.10
2018-03-30T00:42:57.793Z,73.70
2018-03-30T00:43:57.783Z,81.30
2018-03-30T00:44:57.778Z,87.30
2018-03-30T00:45:57.772Z,75.00
2018-03-30T00:46:57.747Z,70.60
2018-03-30T00:47:57.778Z,70.40
2018-03-30T00:48:57.712Z,76.30
2018-03-30T00:49:57.717Z,72.50
2018-03-30T00:50:57.695Z,89.50
2018-03-30T00:51:57.692Z,89.10
2018-03-30T00:52:57.676Z,77.20
2018-03-30T00:53:57.739Z,74.10
2018-03-30T00:54:57.654Z,69.30
2018-03-30T00:55:57.645Z,74.20
2018-03-30T00:56:57.638Z,79.00
2018-03-30T00:57:57.625Z,81.40
2018-03-30T00:58:57.604Z,73.20
2018-03-30T00:59:57.608Z,70.20
2018-03-30T01:00:57.659Z,61.30
2018-03-30T01:01:57.575Z,59.40
2018-03-30T01:02:57.637Z,63.70
2018-03-30T01:03:57.619Z,66.50
2018-03-30T01:04:57.540Z,51.30
2018-03-30T01:05:57.532Z,53.90
2018-03-30T01:06:57.518Z,52.10
2018-03-30T01:07:57.506Z,57.40
2018-03-30T01:08:57.494Z,64.70
2018-03-30T01:09:57.533Z,88.50
2018-03-30T01:10:57.473Z,77.10
2018-03-30T01:11:57.462Z,103.30
2018-03-30T01:12:57.527Z,107.50
2018-03-30T01:13:57.436Z,88.80
2018-03-30T01:14:57.428Z,96.80
2018-03-30T01:15:57.422Z,100.00
2018-03-30T01:16:57.400Z,96.30
2018-03-30T01:17:57.440Z,110.00
2018-03-30T01:18:57.377Z,114.30
2018-03-30T01:19:57.454Z,130.00
2018-03-30T01:20:57.353Z,143.20
2018-03-30T01:21:57.345Z,141.80
2018-03-30T01:22:57.340Z,137.00
2018-03-30T01:23:57.324Z,128.90
2018-03-30T01:24:57.319Z,120.10
2018-03-30T01:25:57.305Z,122.80
2018-03-30T01:26:57.284Z,117.20
2018-03-30T01:27:57.295Z,98.60
2018-03-30T01:28:57.274Z,89.20
2018-03-30T01:29:57.253Z,90.20
2018-03-30T01:30:57.243Z,80.10
2018-03-30T02:03:00.061Z,62.90
2018-03-30T02:04:00.019Z,199.70
2018-03-30T02:05:52.916Z,243.70
2018-03-30T02:06:52.870Z,246.30
2018-03-30T02:07:52.843Z,232.30
2018-03-30T02:08:52.841Z,211.70
2018-03-30T02:09:52.829Z,228.30
2018-03-30T02:10:52.876Z,183.80
2018-03-30T02:11:52.800Z,191.30
2018-03-30T02:12:52.795Z,181.80
2018-03-30T02:13:52.780Z,196.50
2018-03-30T02:14:52.774Z,187.50
2018-03-30T02:15:52.760Z,189.20
2018-03-30T02:16:52.755Z,169.90
2018-03-30T02:17:52.814Z,208.40
2018-03-30T02:18:52.809Z,152.00
2018-03-30T02:19:52.818Z,154.10
2018-03-30T02:20:52.743Z,164.50
2018-03-30T02:21:52.694Z,165.20
2018-03-30T02:22:52.700Z,142.40
2018-03-30T02:23:52.723Z,147.00
2018-03-30T02:24:52.658Z,107.60
2018-03-30T02:25:52.648Z,94.80
2018-03-30T02:26:52.633Z,99.40
2018-03-30T02:27:52.682Z,97.70
2018-03-30T02:28:52.646Z,103.20
2018-03-30T02:29:52.603Z,109.40
2018-03-30T02:30:52.618Z,116.10
2018-03-30T02:31:52.577Z,128.90
2018-03-30T02:32:52.572Z,117.80
2018-03-30T02:33:52.552Z,115.20
2018-03-30T02:34:52.551Z,129.90
2018-03-30T02:35:52.541Z,128.40
2018-03-30T02:36:52.525Z,129.80
2018-03-30T02:37:52.519Z,121.80
2018-03-30T02:38:52.498Z,116.30
2018-03-30T02:39:52.499Z,111.80
2018-03-30T02:40:52.559Z,111.70
2018-03-30T02:41:52.473Z,104.20
2018-03-30T02:42:52.461Z,96.20
2018-03-30T02:43:52.454Z,106.50
2018-03-30T02:44:52.437Z,107.80
2018-03-30T02:45:52.430Z,99.30
2018-03-30T02:46:52.419Z,100.80
2018-03-30T02:47:52.489Z,92.90
2018-03-30T02:48:52.404Z,91.60
2018-03-30T02:49:52.391Z,89.50
2018-03-30T02:50:52.459Z,82.40
2018-03-30T02:51:52.495Z,77.70
2018-03-30T02:52:52.406Z,79.70
2018-03-30T02:53:52.355Z,77.90
2018-03-30T02:54:52.337Z,77.40
2018-03-30T02:55:52.331Z,68.40
2018-03-30T02:56:52.321Z,67.40
2018-03-30T02:57:52.307Z,63.20
2018-03-30T02:58:52.312Z,68.10
2018-03-30T02:59:52.285Z,68.10
2018-03-30T03:00:52.268Z,71.30
2018-03-30T03:01:52.252Z,79.70
2018-03-30T03:02:52.248Z,81.80
2018-03-30T03:03:52.237Z,84.90
2018-03-30T03:04:52.238Z,81.70
2018-03-30T03:05:52.225Z,79.80
2018-03-30T03:06:52.217Z,73.40
2018-03-30T03:07:52.197Z,88.60
2018-03-30T03:08:52.187Z,94.70
2018-03-30T03:09:52.172Z,94.80
2018-03-30T03:10:52.166Z,112.70
2018-03-30T03:11:52.158Z,93.40
2018-03-30T03:12:52.142Z,98.30
2018-03-30T03:13:52.192Z,94.20
2018-03-30T03:14:52.116Z,109.80
2018-03-30T03:15:52.169Z,101.30
2018-03-30T03:16:52.098Z,103.20
2018-03-30T03:17:52.102Z,97.60
2018-03-30T03:18:52.080Z,97.00
2018-03-30T03:19:52.066Z,96.80
2018-03-30T03:20:52.079Z,111.30
2018-03-30T03:21:52.102Z,113.60
2018-03-30T03:22:52.053Z,90.40
2018-03-30T03:23:52.039Z,108.00
2018-03-30T03:24:52.018Z,92.00
2018-03-30T03:25:52.056Z,89.60
2018-03-30T03:26:52.003Z,83.60
2018-03-30T03:27:52.043Z,97.10
2018-03-30T03:28:51.980Z,81.40
2018-03-30T03:29:51.984Z,89.10
2018-03-30T03:30:51.958Z,92.40
2018-03-30T03:31:52.003Z,87.30
2018-03-30T03:32:51.931Z,76.10
2018-03-30T03:33:51.995Z,79.10
2018-03-30T03:34:51.928Z,64.50
2018-03-30T03:35:51.914Z,58.20
2018-03-30T03:36:51.992Z,58.90
2018-03-30T03:37:51.885Z,69.60
2018-03-30T03:38:51.879Z,60.50
2018-03-30T03:39:51.863Z,58.80
2018-03-30T03:40:51.852Z,58.40
2018-03-30T03:41:51.854Z,66.70
2018-03-30T03:42:51.837Z,63.00
2018-03-30T03:43:51.820Z,56.60
2018-03-30T03:44:51.814Z,56.50
2018-03-30T03:45:51.810Z,60.70
2018-03-30T03:46:51.795Z,60.70
2018-03-30T03:47:51.784Z,54.10
2018-03-30T03:48:51.788Z,61.40
2018-03-30T03:49:51.763Z,58.10
2018-03-30T03:50:51.757Z,51.90
2018-03-30T03:51:51.745Z,50.40
2018-03-30T03:52:51.740Z,45.90
2018-03-30T03:53:51.729Z,48.80
2018-03-30T03:54:51.723Z,47.60
2018-03-30T03:55:51.702Z,43.40
2018-03-30T03:56:51.697Z,47.90
2018-03-30T03:57:51.679Z,52.20
2018-03-30T03:58:51.676Z,55.20
2018-03-30T03:59:51.666Z,45.70
2018-03-30T04:00:51.656Z,46.30
2018-03-30T04:01:51.647Z,43.20
2018-03-30T04:02:51.634Z,45.70
2018-03-30T04:03:51.665Z,39.40
2018-03-30T04:04:51.684Z,42.20
2018-03-30T04:05:51.609Z,46.40
2018-03-30T04:06:51.596Z,51.90
2018-03-30T04:07:51.591Z,49.40
2018-03-30T04:08:51.586Z,57.70
2018-03-30T04:09:51.565Z,57.80
2018-03-30T04:10:51.552Z,52.80
2018-03-30T04:11:51.541Z,51.60
2018-03-30T04:12:51.557Z,59.60
2018-03-30T04:13:51.514Z,49.80
2018-03-30T04:14:51.516Z,52.40
2018-03-30T04:15:51.511Z,57.10
2018-03-30T04:16:51.496Z,57.20
2018-03-30T04:17:51.489Z,51.10
2018-03-30T04:18:51.484Z,48.60
2018-03-30T04:19:51.467Z,48.60
2018-03-30T04:20:51.480Z,47.20
2018-03-30T04:21:51.444Z,43.30
2018-03-30T04:22:51.431Z,36.90
2018-03-30T04:23:51.482Z,37.60
2018-03-30T04:24:51.412Z,35.90
2018-03-30T04:25:51.409Z,40.40
2018-03-30T04:26:51.393Z,39.80
2018-03-30T04:27:51.388Z,39.50
2018-03-30T04:28:51.374Z,38.80
2018-03-30T04:29:51.365Z,34.80
2018-03-30T04:30:51.357Z,35.80
2018-03-30T04:31:51.349Z,37.30
2018-03-30T04:32:51.512Z,38.30
2018-03-30T04:33:51.321Z,41.80
2018-03-30T04:34:51.313Z,35.70
2018-03-30T04:35:51.360Z,36.90
2018-03-30T04:36:51.300Z,33.40
2018-03-30T04:37:51.355Z,35.00
2018-03-30T04:38:51.272Z,38.70
2018-03-30T04:39:51.265Z,42.40
2018-03-30T04:40:51.263Z,53.10
2018-03-30T04:41:51.248Z,54.40
2018-03-30T04:42:51.240Z,58.00
2018-03-30T04:43:51.223Z,52.90
2018-03-30T04:44:51.209Z,58.30
2018-03-30T04:45:51.214Z,60.30
2018-03-30T04:46:51.196Z,57.90
2018-03-30T04:47:51.177Z,47.20
2018-03-30T04:48:51.184Z,47.30
2018-03-30T04:49:51.165Z,55.40
2018-03-30T04:50:51.154Z,53.60
2018-03-30T04:51:51.152Z,53.40
2018-03-30T04:52:51.130Z,55.20
2018-03-30T04:53:51.105Z,54.10
2018-03-30T04:54:51.103Z,50.30
2018-03-30T04:55:51.093Z,48.80
2018-03-30T04:56:51.086Z,46.00
2018-03-30T04:57:51.092Z,47.70
2018-03-30T04:58:51.062Z,43.30
2018-03-30T04:59:51.055Z,43.10
2018-03-30T05:00:51.067Z,50.70
2018-03-30T05:01:51.039Z,47.90
2018-03-30T05:02:51.016Z,51.90
2018-03-30T05:03:51.014Z,51.80
2018-03-30T05:04:51.002Z,54.40
2018-03-30T05:05:51.025Z,48.00
2018-03-30T05:06:51.026Z,50.10
2018-03-30T05:07:51.032Z,49.10
2018-03-30T05:08:51.053Z,47.20
2018-03-30T05:09:50.936Z,50.40
2018-03-30T05:10:50.936Z,50.10
2018-03-30T05:11:50.928Z,49.30
2018-03-30T05:12:50.916Z,46.20
2018-03-30T05:13:50.913Z,46.50
2018-03-30T05:14:50.894Z,50.50
2018-03-30T05:15:50.876Z,40.00
2018-03-30T05:16:50.871Z,45.60
2018-03-30T05:17:50.862Z,42.80
2018-03-30T05:18:50.996Z,40.20
2018-03-30T05:19:50.839Z,38.90
2018-03-30T05:20:50.886Z,39.10
2018-03-30T05:21:50.842Z,40.40
2018-03-30T05:22:50.808Z,38.60
2018-03-30T05:23:50.850Z,39.70
2018-03-30T05:24:50.781Z,30.10
2018-03-30T05:25:50.813Z,20.70
2018-03-30T05:26:50.841Z,23.60
2018-03-30T05:27:50.752Z,21.80
2018-03-30T05:28:50.743Z,27.70
2018-03-30T05:29:50.744Z,22.50
2018-03-30T05:30:50.723Z,21.90
2018-03-30T05:31:50.706Z,24.20
2018-03-30T05:32:50.694Z,25.50
2018-03-30T05:33:50.695Z,21.10
2018-03-30T05:34:50.673Z,22.30
2018-03-30T05:35:50.655Z,22.30
2018-03-30T05:36:50.656Z,23.30
2018-03-30T05:37:50.641Z,24.10
2018-03-30T05:38:50.623Z,24.60
2018-03-30T05:39:50.620Z,26.00
2018-03-30T05:40:50.604Z,26.30
2018-03-30T05:41:50.659Z,24.50
2018-03-30T05:42:50.585Z,24.50
2018-03-30T05:43:50.585Z,24.70
2018-03-30T05:44:50.561Z,22.40
2018-03-30T05:45:50.547Z,24.20
2018-03-30T05:46:50.555Z,21.20
2018-03-30T05:47:50.526Z,23.00
2018-03-30T05:48:50.525Z,25.20
2018-03-30T05:49:50.510Z,23.50
2018-03-30T05:50:50.564Z,19.60
2018-03-30T05:51:50.558Z,24.80
2018-03-30T05:52:50.483Z,20.00
2018-03-30T05:53:50.481Z,19.80
2018-03-30T05:54:50.460Z,19.90
2018-03-30T05:55:50.448Z,18.70
2018-03-30T05:56:50.441Z,23.10
2018-03-30T05:57:50.432Z,33.10
2018-03-30T05:58:50.419Z,27.40
2018-03-30T05:59:50.413Z,23.10
2018-03-30T06:00:50.437Z,17.60
2018-03-30T06:01:50.443Z,17.40
2018-03-30T06:02:50.414Z,16.70
2018-03-30T06:03:50.502Z,14.00
2018-03-30T06:04:50.430Z,14.10
2018-03-30T06:05:50.404Z,13.80
2018-03-30T06:06:50.396Z,13.80
2018-03-30T06:07:50.396Z,12.00
2018-03-30T06:08:50.353Z,12.30
2018-03-30T06:09:50.390Z,11.40
2018-03-30T06:10:50.331Z,10.80
2018-03-30T06:11:50.294Z,11.20
2018-03-30T06:12:50.304Z,12.20
2018-03-30T06:13:50.289Z,11.40
2018-03-30T06:14:50.288Z,11.30
2018-03-30T06:15:50.268Z,12.70
2018-03-30T06:16:50.292Z,13.20
2018-03-30T06:17:50.240Z,13.50
2018-03-30T06:18:50.241Z,13.30
2018-03-30T06:19:50.237Z,14.50
2018-03-30T06:20:51.136Z,13.50
2018-03-30T06:21:50.211Z,14.60
2018-03-30T06:22:50.194Z,16.10
2018-03-30T06:23:50.211Z,16.40
2018-03-30T06:24:50.223Z,16.90
2018-03-30T06:25:50.189Z,14.90
2018-03-30T06:26:50.256Z,14.30
2018-03-30T06:27:50.259Z,15.20
2018-03-30T06:28:50.153Z,13.70
2018-03-30T06:29:50.136Z,15.10
2018-03-30T06:30:50.928Z,15.70
2018-03-30T06:31:50.135Z,15.90
2018-03-30T06:32:50.138Z,15.70
2018-03-30T06:33:50.142Z,16.10
2018-03-30T06:34:50.092Z,14.20
2018-03-30T06:35:50.082Z,15.70
2018-03-30T06:36:50.114Z,14.80
2018-03-30T06:37:50.113Z,14.40
2018-03-30T06:38:50.085Z,13.80
2018-03-30T06:39:50.049Z,11.50
2018-03-30T06:40:50.105Z,11.70
2018-03-30T06:41:50.116Z,11.90
2018-03-30T06:42:50.111Z,12.20
2018-03-30T06:43:50.117Z,11.60
2018-03-30T06:44:50.115Z,11.50
2018-03-30T06:45:50.009Z,11.50
2018-03-30T06:46:50.111Z,13.30
2018-03-30T06:47:50.024Z,12.00
2018-03-30T06:48:50.114Z,11.60
2018-03-30T06:49:50.006Z,11.00
2018-03-30T06:50:49.989Z,11.30
2018-03-30T06:51:49.995Z,11.00
2018-03-30T06:52:50.062Z,10.50
2018-03-30T06:53:50.046Z,10.40
2018-03-30T06:54:49.931Z,11.00
2018-03-30T06:55:50.026Z,9.40
2018-03-30T06:56:50.026Z,10.30
2018-03-30T06:57:49.980Z,9.70
2018-03-30T06:58:50.021Z,10.40
2018-03-30T06:59:49.918Z,9.80
2018-03-30T07:00:50.036Z,10.20
2018-03-30T07:01:49.892Z,9.70
2018-03-30T07:02:49.904Z,9.50
2018-03-30T07:03:50.052Z,8.60
2018-03-30T07:04:50.057Z,9.20
2018-03-30T07:05:49.892Z,9.50
2018-03-30T07:06:49.885Z,9.80
2018-03-30T07:07:49.897Z,9.60
2018-03-30T07:08:49.893Z,9.60
2018-03-30T07:09:49.874Z,9.40
2018-03-30T07:10:49.867Z,8.90
2018-03-30T07:11:49.874Z,8.70
2018-03-30T07:12:49.861Z,8.80
2018-03-30T07:13:49.833Z,9.00
2018-03-30T07:14:49.842Z,9.40
2018-03-30T07:15:49.836Z,9.10
2018-03-30T07:16:49.830Z,9.20
2018-03-30T07:17:50.575Z,9.30
2018-03-30T07:18:49.829Z,9.30
2018-03-30T07:19:49.829Z,9.10
2018-03-30T07:20:49.807Z,9.30
2018-03-30T07:21:49.792Z,8.90
2018-03-30T07:22:49.789Z,8.80
2018-03-30T07:23:49.793Z,8.20
2018-03-30T07:24:49.799Z,8.40
2018-03-30T07:25:49.802Z,8.70
2018-03-30T07:26:49.814Z,8.90
2018-03-30T07:27:49.815Z,8.70
2018-03-30T07:28:49.733Z,8.30
2018-03-30T07:29:49.832Z,8.50
2018-03-30T07:30:49.808Z,8.70
2018-03-30T07:31:49.846Z,8.70
2018-03-30T07:32:49.742Z,8.70
2018-03-30T07:33:49.845Z,9.00
2018-03-30T07:34:49.849Z,8.50
2018-03-30T07:35:49.853Z,8.30
2018-03-30T07:36:49.707Z,8.80
2018-03-30T07:37:49.716Z,8.40
2018-03-30T07:38:49.750Z,9.20
2018-03-30T07:39:49.703Z,8.60
2018-03-30T07:40:49.693Z,8.40
2018-03-30T07:41:49.707Z,9.30
2018-03-30T07:42:49.753Z,9.20
2018-03-30T07:43:49.687Z,8.40
2018-03-30T07:44:49.694Z,9.30
2018-03-30T07:45:49.658Z,10.40
2018-03-30T07:48:34.491Z,10.40
2018-03-30T15:12:00.083Z,1.40
2018-03-30T15:13:00.101Z,1.30
2018-03-30T15:14:53.033Z,0.80
2018-03-30T15:15:53.022Z,1.10
2018-03-30T15:17:47.946Z,1.00
2018-03-30T15:18:45.944Z,0.80
2018-03-30T15:19:45.944Z,0.90
2018-03-30T15:20:45.949Z,0.90
2018-03-30T15:21:45.945Z,0.90
2018-03-30T15:22:45.948Z,0.80
2018-03-30T15:23:45.934Z,0.80
2018-03-30T15:24:45.976Z,0.80
2018-03-30T15:25:45.990Z,0.70
2018-03-30T15:26:45.996Z,1.20
2018-03-30T15:27:46.000Z,0.90
2018-03-30T15:28:46.012Z,0.90
2018-03-30T15:29:45.938Z,0.90
2018-03-30T15:30:45.931Z,0.80
2018-03-30T15:31:45.951Z,0.80
2018-03-30T15:32:45.929Z,0.80
2018-03-30T15:33:45.926Z,0.70
2018-03-30T15:34:45.929Z,1.30
2018-03-30T15:35:46.025Z,0.80
2018-03-30T15:36:45.915Z,1.00
2018-03-30T15:37:45.916Z,0.70
2018-03-30T15:38:45.917Z,1.30
2018-03-30T15:39:45.944Z,1.10
2018-03-30T15:40:45.908Z,0.80
2018-03-30T15:41:45.927Z,0.80
2018-03-30T15:42:45.946Z,0.70
2018-03-30T15:43:45.902Z,0.90
2018-03-30T15:44:45.911Z,0.80
2018-03-30T15:45:45.896Z,0.90
2018-03-30T15:46:45.901Z,0.80
2018-03-30T15:47:45.943Z,0.80
2018-03-30T15:48:45.896Z,0.80
2018-03-30T15:49:45.928Z,0.80
2018-03-30T15:50:45.915Z,1.20
2018-03-30T15:51:45.903Z,0.70
2018-03-30T15:52:45.890Z,0.80
2018-03-30T15:53:45.884Z,0.90
2018-03-30T15:54:45.883Z,1.10
2018-03-30T15:55:45.887Z,1.70
2018-03-30T15:56:45.879Z,0.90
2018-03-30T15:57:45.870Z,1.60
2018-03-30T15:58:45.872Z,0.90
2018-03-30T15:59:45.890Z,0.70
2018-03-30T16:00:45.878Z,0.80
2018-03-30T16:01:45.932Z,0.70
2018-03-30T16:02:45.928Z,1.00
2018-03-30T16:03:45.863Z,1.00
2018-03-30T16:04:45.861Z,1.10
2018-03-30T16:05:45.933Z,2.00
2018-03-30T16:06:45.863Z,0.70
2018-03-30T16:07:45.875Z,1.00
2018-03-30T16:08:45.859Z,1.00
2018-03-30T16:09:45.864Z,1.00
2018-03-30T16:10:45.851Z,1.10
2018-03-30T16:11:45.871Z,1.30
2018-03-30T16:12:45.882Z,1.30
2018-03-30T16:13:45.847Z,1.20
2018-03-30T16:14:45.877Z,2.10
2018-03-30T16:15:45.848Z,3.00
2018-03-30T16:16:45.847Z,4.00
2018-03-30T16:17:45.852Z,4.80
2018-03-30T16:18:45.839Z,2.50
2018-03-30T16:19:45.833Z,1.50
2018-03-30T16:20:45.842Z,0.80
2018-03-30T16:21:45.844Z,0.90
2018-03-30T16:22:45.830Z,0.90
2018-03-30T16:23:45.825Z,1.00
2018-03-30T16:24:45.833Z,0.90
2018-03-30T16:25:45.829Z,0.90
2018-03-30T16:26:45.823Z,1.00
2018-03-30T16:27:45.852Z,0.80
2018-03-30T16:28:45.842Z,0.90
2018-03-30T16:29:45.853Z,0.80
2018-03-30T16:30:45.838Z,0.90
2018-03-30T16:31:45.831Z,0.70
2018-03-30T16:32:45.821Z,0.80
2018-03-30T16:33:45.817Z,0.90
2018-03-30T16:34:45.806Z,0.90
2018-03-30T16:35:45.851Z,0.80
2018-03-30T16:36:45.874Z,0.80
2018-03-30T16:37:45.803Z,0.90
2018-03-30T16:38:45.808Z,0.80
2018-03-30T16:39:45.813Z,0.70
2018-03-30T16:40:45.794Z,0.80
2018-03-30T16:41:45.798Z,1.00
2018-03-30T16:42:45.796Z,1.40
2018-03-30T16:43:45.792Z,0.80
2018-03-30T16:44:45.796Z,1.00
2018-03-30T16:45:45.793Z,1.10
2018-03-30T16:46:45.797Z,0.90
2018-03-30T16:47:45.788Z,1.40
2018-03-30T16:48:45.801Z,1.30
2018-03-30T16:49:45.773Z,1.10
2018-03-30T16:50:45.774Z,1.10
2018-03-30T16:51:45.816Z,1.10
2018-03-30T16:52:45.774Z,1.50
2018-03-30T16:53:45.802Z,0.90
2018-03-30T16:54:45.771Z,1.50
2018-03-30T16:55:45.771Z,0.80
2018-03-30T16:56:45.794Z,1.20
2018-03-30T16:57:45.759Z,1.50
2018-03-30T16:58:45.750Z,1.80
2018-03-30T16:59:45.764Z,3.10
2018-03-30T17:01:45.776Z,2.70
2018-03-30T17:02:45.795Z,2.60
2018-03-30T17:03:45.767Z,2.30
2018-03-30T17:04:45.838Z,2.80
2018-03-30T17:05:45.760Z,2.40
2018-03-30T17:06:45.779Z,2.20
2018-03-30T17:08:06.783Z,2.40
2018-03-30T17:08:45.749Z,2.50
2018-03-30T17:09:46.547Z,2.50
2018-03-30T17:10:45.839Z,2.60
2018-03-30T17:11:45.729Z,2.80
2018-03-30T17:12:45.733Z,2.70
2018-03-30T17:14:06.742Z,2.70
2018-03-30T17:14:45.753Z,3.70
2018-03-30T17:15:45.793Z,3.40
2018-03-30T17:16:45.727Z,3.70
2018-03-30T17:17:45.745Z,3.90
2018-03-30T17:18:45.739Z,4.10
2018-03-30T17:20:06.712Z,4.00
2018-03-30T17:20:45.709Z,4.20
2018-03-30T17:21:45.711Z,4.10
2018-03-30T17:22:45.730Z,4.50
2018-03-30T17:23:45.750Z,4.60
2018-03-30T17:24:45.682Z,4.80
2018-03-30T17:26:06.773Z,5.10
2018-03-30T17:26:45.685Z,5.20
2018-03-30T17:27:45.715Z,4.40
2018-03-30T17:28:45.670Z,5.00
2018-03-30T17:29:45.661Z,4.70
2018-03-30T17:30:45.655Z,4.50
2018-03-30T17:32:06.680Z,5.30
2018-03-30T17:32:45.651Z,4.50
2018-03-30T17:33:45.644Z,6.00
2018-03-30T17:34:45.685Z,5.60
2018-03-30T17:35:46.571Z,4.60
2018-03-30T17:36:45.635Z,4.00
2018-03-30T17:38:06.659Z,4.00
2018-03-30T17:38:45.626Z,4.00
2018-03-30T17:39:45.641Z,4.10
2018-03-30T17:40:45.627Z,3.80
2018-03-30T17:41:45.615Z,3.90
2018-03-30T17:42:45.724Z,3.70
2018-03-30T17:44:06.629Z,3.60
2018-03-30T17:44:45.600Z,3.50
2018-03-30T17:45:45.592Z,4.00
2018-03-30T17:46:45.609Z,4.90
2018-03-30T17:47:45.600Z,4.20
2018-03-30T17:48:45.578Z,4.70
2018-03-30T17:50:06.602Z,4.80
2018-03-30T17:50:45.581Z,4.00
2018-03-30T17:51:45.575Z,4.60
2018-03-30T17:52:45.569Z,4.40
2018-03-30T17:53:45.583Z,5.60
2018-03-30T17:54:45.593Z,4.50
2018-03-30T17:56:06.603Z,4.30
2018-03-30T17:56:45.570Z,4.50
2018-03-30T17:57:45.625Z,4.10
2018-03-30T17:58:45.591Z,4.30
2018-03-30T17:59:45.596Z,4.60
2018-03-30T18:02:06.749Z,4.50
2018-03-30T18:02:45.817Z,4.80
2018-03-30T18:03:45.754Z,4.60
2018-03-30T18:04:45.660Z,4.80
2018-03-30T18:05:45.701Z,5.10
2018-03-30T18:08:17.198Z,5.10
2018-03-30T18:09:17.162Z,5.40
2018-03-30T18:11:10.174Z,4.90
2018-03-30T18:12:10.118Z,5.10
2018-03-30T18:14:02.994Z,5.00
2018-03-30T18:15:02.977Z,5.10
2018-03-30T18:16:55.991Z,5.00
2018-03-30T18:17:55.960Z,5.70
2018-03-30T18:19:48.883Z,5.60
2018-03-30T18:20:48.852Z,5.20
2018-03-30T18:22:41.853Z,5.50
2018-03-30T18:23:41.827Z,5.40
2018-03-30T18:24:41.807Z,5.10
2018-03-30T18:25:41.804Z,5.40
2018-03-30T18:26:41.849Z,4.80
2018-03-30T18:27:41.779Z,5.20
2018-03-30T18:28:41.800Z,5.50
2018-03-30T18:29:41.765Z,5.50
2018-03-30T18:30:41.769Z,6.00
2018-03-30T18:31:41.942Z,5.70
2018-03-30T18:32:41.746Z,5.60
2018-03-30T18:33:41.740Z,5.50
2018-03-30T18:34:41.737Z,6.40
2018-03-30T18:35:41.773Z,5.80
2018-03-30T18:36:41.730Z,6.00
2018-03-30T18:37:41.762Z,6.00
2018-03-30T18:38:41.883Z,6.10
2018-03-30T18:39:41.766Z,6.50
2018-03-30T18:40:41.717Z,6.20
2018-03-30T18:41:41.813Z,6.40
2018-03-30T18:42:41.697Z,6.50
2018-03-30T18:43:41.686Z,7.20
2018-03-30T18:44:41.680Z,7.00
2018-03-30T18:45:41.674Z,6.80
2018-03-30T18:46:41.659Z,6.90
2018-03-30T18:47:41.664Z,6.60
2018-03-30T18:48:41.684Z,5.20
2018-03-30T18:49:41.643Z,5.90
2018-03-30T18:50:41.655Z,4.70
2018-03-30T18:51:41.634Z,4.90
2018-03-30T18:52:41.634Z,5.80
2018-03-30T18:53:41.620Z,5.10
2018-03-30T18:54:41.609Z,4.70
2018-03-30T18:55:41.628Z,5.90
2018-03-30T18:56:41.636Z,6.10
2018-03-30T18:57:41.646Z,5.00
2018-03-30T18:58:41.625Z,4.50
2018-03-30T18:59:42.211Z,4.20
2018-03-30T19:00:41.603Z,4.40
2018-03-30T19:01:41.694Z,4.50
2018-03-30T19:02:41.582Z,4.20
2018-03-30T19:03:41.560Z,4.00
2018-03-30T19:04:41.580Z,3.60
2018-03-30T19:05:41.577Z,4.10
2018-03-30T19:06:41.533Z,3.30
2018-03-30T19:07:41.529Z,3.60
2018-03-30T19:08:41.575Z,3.30
2018-03-30T19:09:41.518Z,3.50
2018-03-30T19:10:41.506Z,3.40
2018-03-30T19:11:41.492Z,3.80
2018-03-30T19:12:41.494Z,4.00
2018-03-30T19:13:41.496Z,4.60
2018-03-30T19:14:41.486Z,4.20
2018-03-30T19:15:41.475Z,3.70
2018-03-30T19:16:41.472Z,4.10
2018-03-30T19:17:41.458Z,4.10
2018-03-30T19:18:41.451Z,4.20
2018-03-30T19:19:41.449Z,4.00
2018-03-30T19:20:41.441Z,4.00
2018-03-30T19:21:41.434Z,4.30
2018-03-30T19:22:41.422Z,3.80
2018-03-30T19:23:41.422Z,3.50
2018-03-30T19:24:41.413Z,3.50
2018-03-30T19:25:41.404Z,3.30
2018-03-30T19:26:41.410Z,3.40
2018-03-30T19:27:41.443Z,3.20
2018-03-30T19:28:41.403Z,3.20
2018-03-30T19:29:41.402Z,3.30
2018-03-30T19:30:41.399Z,3.00
2018-03-30T19:31:41.394Z,4.40
2018-03-30T19:32:41.377Z,3.20
2018-03-30T19:33:41.348Z,3.90
2018-03-30T19:34:41.445Z,3.60
2018-03-30T19:35:41.439Z,2.70
2018-03-30T19:36:41.330Z,2.80
2018-03-30T19:37:41.332Z,3.80
2018-03-30T19:38:41.346Z,3.00
2018-03-30T19:39:41.318Z,2.90
2018-03-30T19:40:41.306Z,2.50
2018-03-30T19:41:41.295Z,2.40
2018-03-30T19:42:41.288Z,2.80
2018-03-30T19:43:41.291Z,2.30
2018-03-30T19:44:41.278Z,2.20
2018-03-30T19:45:41.310Z,2.30
2018-03-30T19:46:41.257Z,2.20
2018-03-30T19:47:41.255Z,2.20
2018-03-30T19:48:41.297Z,2.10
2018-03-30T19:49:41.237Z,2.00
2018-03-30T19:50:41.234Z,1.80
2018-03-30T19:51:41.227Z,4.20
2018-03-30T19:52:41.220Z,2.40
2018-03-30T19:53:41.231Z,2.90
2018-03-30T19:54:41.208Z,1.90
2018-03-30T19:55:41.195Z,1.70
2018-03-30T19:56:41.190Z,2.30
2018-03-30T19:57:41.184Z,1.90
2018-03-30T19:58:41.171Z,1.90
2018-03-30T19:59:41.172Z,1.90
2018-03-30T20:00:41.246Z,1.70
2018-03-30T20:01:41.304Z,2.60
2018-03-30T20:02:41.138Z,2.20
2018-03-30T20:03:41.133Z,1.80
2018-03-30T20:04:41.123Z,2.00
2018-03-30T20:05:41.154Z,2.20
2018-03-30T20:06:41.113Z,2.00
2018-03-30T20:07:41.110Z,2.10
2018-03-30T20:08:41.101Z,2.10
2018-03-30T20:09:41.107Z,2.30
2018-03-30T20:10:41.086Z,2.50
2018-03-30T20:11:41.081Z,3.00
2018-03-30T20:12:41.073Z,1.90
2018-03-30T20:13:41.068Z,2.40
2018-03-30T20:14:41.072Z,2.70
2018-03-30T20:15:41.131Z,3.60
2018-03-30T20:16:41.077Z,1.80
2018-03-30T20:17:41.053Z,1.80
2018-03-30T20:18:41.090Z,1.50
2018-03-30T20:19:41.035Z,1.50
2018-03-30T20:20:41.025Z,1.60
2018-03-30T20:21:41.029Z,1.70
2018-03-30T20:22:40.996Z,1.80
2018-03-30T20:23:40.995Z,1.60
2018-03-30T20:24:41.027Z,2.00
2018-03-30T20:25:40.969Z,2.10
2018-03-30T20:26:40.966Z,1.90
2018-03-30T20:27:40.957Z,2.10
2018-03-30T20:28:40.964Z,2.10
2018-03-30T20:29:41.008Z,2.50
2018-03-30T20:30:40.937Z,3.10
2018-03-30T20:31:41.041Z,2.00
2018-03-30T20:32:40.926Z,1.90
2018-03-30T20:33:40.919Z,1.90
2018-03-30T20:34:40.901Z,1.60
2018-03-30T20:35:40.916Z,1.60
2018-03-30T20:36:40.894Z,1.30
2018-03-30T20:37:40.891Z,1.30
2018-03-30T20:38:40.871Z,1.40
2018-03-30T20:39:40.870Z,1.30
2018-03-30T20:40:40.861Z,2.40
2018-03-30T20:41:40.849Z,1.30
2018-03-30T20:42:40.848Z,1.40
2018-03-30T20:43:40.829Z,1.50
2018-03-30T20:44:40.826Z,2.10
2018-03-30T20:45:40.825Z,1.40
2018-03-30T20:46:40.808Z,1.40
2018-03-30T20:47:40.817Z,2.60
2018-03-30T20:48:40.847Z,1.40
2018-03-30T20:49:40.793Z,1.30
2018-03-30T20:50:40.780Z,1.20
2018-03-30T20:51:40.820Z,1.40
2018-03-30T20:52:40.768Z,1.50
2018-03-30T20:53:40.755Z,1.50
2018-03-30T20:54:40.749Z,1.40
2018-03-30T20:55:40.744Z,1.20
2018-03-30T20:56:40.753Z,1.40
2018-03-30T20:57:40.741Z,2.10
2018-03-30T20:58:40.723Z,1.30
2018-03-30T20:59:40.708Z,1.00
2018-03-30T21:00:40.747Z,0.90
2018-03-30T21:01:40.817Z,0.90
2018-03-30T21:02:40.681Z,1.00
2018-03-30T21:03:40.681Z,1.30
2018-03-30T21:04:40.678Z,1.00
2018-03-30T21:05:40.700Z,1.00
2018-03-30T21:06:40.661Z,2.00
2018-03-30T21:07:40.653Z,0.80
2018-03-30T21:08:40.638Z,2.00
2018-03-30T21:09:40.632Z,0.90